sensor_id;sensor_type;location;lat;lon;timestamp;pressure;altitude;pressure_sealevel;temperature;humidity
68107;BME280;54892;47.488;19.026;2023-06-14T00:00:22;99728.44;;;15.73;63.29
68107;BME280;54892;47.488;19.026;2023-06-14T00:03:27;99722.66;;;15.71;63.64
68107;BME280;54892;47.488;19.026;2023-06-14T00:06:30;99727.37;;;15.74;63.74
68107;BME280;54892;47.488;19.026;2023-06-14T00:09:35;99728.25;;;15.69;64.60
68107;BME280;54892;47.488;19.026;2023-06-14T00:12:39;99721.47;;;15.77;64.34
68107;BME280;54892;47.488;19.026;2023-06-14T00:15:42;99717.91;;;15.81;63.96
68107;BME280;54892;47.488;19.026;2023-06-14T00:18:47;99727.72;;;15.86;63.97
68107;BME280;54892;47.488;19.026;2023-06-14T00:21:51;99725.59;;;15.83;64.11
68107;BME280;54892;47.488;19.026;2023-06-14T00:24:55;99729.16;;;15.78;64.28
68107;BME280;54892;47.488;19.026;2023-06-14T00:27:58;99728.56;;;15.67;65.05
68107;BME280;54892;47.488;19.026;2023-06-14T00:31:02;99742.34;;;15.56;65.92
68107;BME280;54892;47.488;19.026;2023-06-14T00:34:06;99738.59;;;15.43;66.53
68107;BME280;54892;47.488;19.026;2023-06-14T00:37:09;99736.81;;;15.24;67.21
68107;BME280;54892;47.488;19.026;2023-06-14T00:40:13;99735.59;;;15.16;67.91
68107;BME280;54892;47.488;19.026;2023-06-14T00:43:16;99730.94;;;15.08;68.40
68107;BME280;54892;47.488;19.026;2023-06-14T00:46:20;99732.91;;;15.02;68.63
68107;BME280;54892;47.488;19.026;2023-06-14T00:49:26;99744.78;;;14.91;69.27
68107;BME280;54892;47.488;19.026;2023-06-14T00:52:29;99744.06;;;14.85;69.64
68107;BME280;54892;47.488;19.026;2023-06-14T00:55:34;99739.97;;;14.93;69.88
68107;BME280;54892;47.488;19.026;2023-06-14T00:58:38;99750.66;;;14.88;70.25
68107;BME280;54892;47.488;19.026;2023-06-14T01:01:41;99743.84;;;14.82;70.53
68107;BME280;54892;47.488;19.026;2023-06-14T01:04:47;99744.06;;;14.85;70.70
68107;BME280;54892;47.488;19.026;2023-06-14T01:07:58;99743.00;;;14.86;70.71
68107;BME280;54892;47.488;19.026;2023-06-14T01:11:08;99733.87;;;14.73;70.93
68107;BME280;54892;47.488;19.026;2023-06-14T01:14:14;99736.03;;;14.71;71.40
68107;BME280;54892;47.488;19.026;2023-06-14T01:17:20;99736.19;;;14.80;70.92
68107;BME280;54892;47.488;19.026;2023-06-14T01:20:28;99737.25;;;14.60;71.27
68107;BME280;54892;47.488;19.026;2023-06-14T01:23:34;99731.00;;;14.51;71.62
68107;BME280;54892;47.488;19.026;2023-06-14T01:26:38;99723.81;;;14.51;71.70
68107;BME280;54892;47.488;19.026;2023-06-14T01:29:48;99729.28;;;14.60;71.73
68107;BME280;54892;47.488;19.026;2023-06-14T01:32:52;99734.50;;;14.46;71.90
68107;BME280;54892;47.488;19.026;2023-06-14T01:35:58;99729.47;;;14.25;72.71
68107;BME280;54892;47.488;19.026;2023-06-14T01:39:04;99726.75;;;14.30;73.00
68107;BME280;54892;47.488;19.026;2023-06-14T01:42:09;99738.38;;;14.35;73.12
68107;BME280;54892;47.488;19.026;2023-06-14T01:45:13;99736.09;;;14.28;73.45
68107;BME280;54892;47.488;19.026;2023-06-14T01:48:18;99733.44;;;14.28;74.15
68107;BME280;54892;47.488;19.026;2023-06-14T01:51:22;99740.91;;;14.26;74.26
68107;BME280;54892;47.488;19.026;2023-06-14T01:54:27;99737.72;;;14.24;74.70
68107;BME280;54892;47.488;19.026;2023-06-14T01:57:31;99733.50;;;14.23;74.91
68107;BME280;54892;47.488;19.026;2023-06-14T02:00:34;99736.97;;;14.23;74.68
68107;BME280;54892;47.488;19.026;2023-06-14T02:03:38;99734.94;;;13.91;75.34
68107;BME280;54892;47.488;19.026;2023-06-14T02:06:42;99739.34;;;14.00;74.81
68107;BME280;54892;47.488;19.026;2023-06-14T02:09:46;99752.44;;;13.92;74.91
68107;BME280;54892;47.488;19.026;2023-06-14T02:12:50;99754.16;;;13.82;75.28
68107;BME280;54892;47.488;19.026;2023-06-14T02:15:53;99747.16;;;13.92;75.05
68107;BME280;54892;47.488;19.026;2023-06-14T02:18:57;99753.19;;;13.97;75.04
68107;BME280;54892;47.488;19.026;2023-06-14T02:22:01;99757.53;;;13.88;74.98
68107;BME280;54892;47.488;19.026;2023-06-14T02:25:06;99758.44;;;13.78;75.54
68107;BME280;54892;47.488;19.026;2023-06-14T02:28:10;99741.97;;;13.81;75.77
68107;BME280;54892;47.488;19.026;2023-06-14T02:31:13;99753.59;;;13.85;75.40
68107;BME280;54892;47.488;19.026;2023-06-14T02:34:18;99753.09;;;13.83;75.56
68107;BME280;54892;47.488;19.026;2023-06-14T02:37:22;99745.69;;;13.80;75.57
68107;BME280;54892;47.488;19.026;2023-06-14T02:40:26;99745.81;;;13.70;75.74
68107;BME280;54892;47.488;19.026;2023-06-14T02:43:30;99749.28;;;13.65;76.19
68107;BME280;54892;47.488;19.026;2023-06-14T02:46:34;99753.81;;;13.65;76.07
68107;BME280;54892;47.488;19.026;2023-06-14T02:49:38;99744.66;;;13.52;76.76
68107;BME280;54892;47.488;19.026;2023-06-14T02:52:41;99745.62;;;13.61;76.49
68107;BME280;54892;47.488;19.026;2023-06-14T02:55:48;99745.06;;;13.64;76.53
68107;BME280;54892;47.488;19.026;2023-06-14T02:58:51;99738.94;;;13.69;76.34
68107;BME280;54892;47.488;19.026;2023-06-14T03:01:55;99749.56;;;13.64;76.12
68107;BME280;54892;47.488;19.026;2023-06-14T03:04:58;99744.13;;;13.50;76.56
68107;BME280;54892;47.488;19.026;2023-06-14T03:08:03;99742.22;;;13.55;77.08
68107;BME280;54892;47.488;19.026;2023-06-14T03:11:08;99742.47;;;13.59;77.44
68107;BME280;54892;47.488;19.026;2023-06-14T03:14:11;99743.31;;;13.54;78.82
68107;BME280;54892;47.488;19.026;2023-06-14T03:17:15;99737.16;;;13.59;78.95
68107;BME280;54892;47.488;19.026;2023-06-14T03:20:19;99739.25;;;13.62;79.19
68107;BME280;54892;47.488;19.026;2023-06-14T03:23:22;99741.06;;;13.67;78.92
68107;BME280;54892;47.488;19.026;2023-06-14T03:26:34;99737.34;;;13.68;78.44
68107;BME280;54892;47.488;19.026;2023-06-14T03:29:39;99744.44;;;13.73;77.30
68107;BME280;54892;47.488;19.026;2023-06-14T03:32:42;99742.13;;;13.66;77.51
68107;BME280;54892;47.488;19.026;2023-06-14T03:35:46;99742.56;;;13.73;77.05
68107;BME280;54892;47.488;19.026;2023-06-14T03:38:49;99751.69;;;13.67;77.21
68107;BME280;54892;47.488;19.026;2023-06-14T03:41:54;99746.59;;;13.70;77.30
68107;BME280;54892;47.488;19.026;2023-06-14T03:44:57;99758.16;;;13.80;77.31
68107;BME280;54892;47.488;19.026;2023-06-14T03:48:00;99757.31;;;13.84;76.97
68107;BME280;54892;47.488;19.026;2023-06-14T03:51:05;99759.47;;;13.82;76.86
68107;BME280;54892;47.488;19.026;2023-06-14T03:54:09;99753.69;;;13.99;76.50
68107;BME280;54892;47.488;19.026;2023-06-14T03:57:34;99747.47;;;14.09;76.31
68107;BME280;54892;47.488;19.026;2023-06-14T04:00:37;99752.88;;;14.23;75.89
68107;BME280;54892;47.488;19.026;2023-06-14T04:03:41;99757.91;;;14.25;76.13
68107;BME280;54892;47.488;19.026;2023-06-14T04:06:45;99755.69;;;14.32;75.84
68107;BME280;54892;47.488;19.026;2023-06-14T04:09:50;99755.75;;;14.46;75.34
68107;BME280;54892;47.488;19.026;2023-06-14T04:12:55;99764.59;;;14.80;74.49
68107;BME280;54892;47.488;19.026;2023-06-14T04:15:58;99773.50;;;14.89;73.90
68107;BME280;54892;47.488;19.026;2023-06-14T04:19:02;99772.94;;;14.92;74.09
68107;BME280;54892;47.488;19.026;2023-06-14T04:22:06;99771.34;;;14.91;74.25
68107;BME280;54892;47.488;19.026;2023-06-14T04:25:09;99775.16;;;14.85;74.56
68107;BME280;54892;47.488;19.026;2023-06-14T04:28:15;99775.44;;;14.83;75.11
68107;BME280;54892;47.488;19.026;2023-06-14T04:31:19;99785.22;;;14.88;75.18
68107;BME280;54892;47.488;19.026;2023-06-14T04:34:23;99781.63;;;14.98;74.90
68107;BME280;54892;47.488;19.026;2023-06-14T04:37:31;99781.81;;;15.01;74.66
68107;BME280;54892;47.488;19.026;2023-06-14T04:40:36;99782.81;;;15.05;74.59
68107;BME280;54892;47.488;19.026;2023-06-14T04:43:45;99779.91;;;15.21;74.02
68107;BME280;54892;47.488;19.026;2023-06-14T04:46:51;99785.09;;;15.12;74.04
68107;BME280;54892;47.488;19.026;2023-06-14T04:49:55;99784.31;;;15.12;74.11
68107;BME280;54892;47.488;19.026;2023-06-14T04:52:59;99780.41;;;15.23;74.01
68107;BME280;54892;47.488;19.026;2023-06-14T04:56:02;99782.19;;;15.28;73.94
68107;BME280;54892;47.488;19.026;2023-06-14T04:59:07;99783.66;;;15.34;73.70
68107;BME280;54892;47.488;19.026;2023-06-14T05:02:10;99791.19;;;15.46;73.13
68107;BME280;54892;47.488;19.026;2023-06-14T05:05:15;99793.69;;;15.56;73.15
68107;BME280;54892;47.488;19.026;2023-06-14T05:08:20;99792.91;;;15.70;72.72
68107;BME280;54892;47.488;19.026;2023-06-14T05:11:25;99799.34;;;15.96;72.38
68107;BME280;54892;47.488;19.026;2023-06-14T05:14:30;99793.81;;;16.35;69.43
68107;BME280;54892;47.488;19.026;2023-06-14T05:17:33;99792.06;;;16.16;70.73
68107;BME280;54892;47.488;19.026;2023-06-14T05:20:37;99794.03;;;16.10;70.48
68107;BME280;54892;47.488;19.026;2023-06-14T05:23:41;99798.16;;;16.31;70.33
68107;BME280;54892;47.488;19.026;2023-06-14T05:26:44;99797.03;;;16.82;68.06
68107;BME280;54892;47.488;19.026;2023-06-14T05:29:49;99802.09;;;16.70;69.24
68107;BME280;54892;47.488;19.026;2023-06-14T05:32:53;99805.19;;;16.63;68.39
68107;BME280;54892;47.488;19.026;2023-06-14T05:35:57;99806.16;;;16.31;69.39
68107;BME280;54892;47.488;19.026;2023-06-14T05:39:00;99804.06;;;16.41;69.56
68107;BME280;54892;47.488;19.026;2023-06-14T05:42:06;99806.62;;;16.05;70.90
68107;BME280;54892;47.488;19.026;2023-06-14T05:45:11;99802.00;;;16.24;70.74
68107;BME280;54892;47.488;19.026;2023-06-14T05:48:16;99803.09;;;16.23;69.81
68107;BME280;54892;47.488;19.026;2023-06-14T05:51:22;99802.50;;;16.26;70.95
68107;BME280;54892;47.488;19.026;2023-06-14T05:54:27;99800.50;;;16.32;69.92
68107;BME280;54892;47.488;19.026;2023-06-14T05:57:30;99804.06;;;16.41;71.31
68107;BME280;54892;47.488;19.026;2023-06-14T06:00:36;99805.34;;;16.44;70.20
68107;BME280;54892;47.488;19.026;2023-06-14T06:03:39;99806.69;;;16.55;69.00
68107;BME280;54892;47.488;19.026;2023-06-14T06:06:43;99808.25;;;16.56;69.73
68107;BME280;54892;47.488;19.026;2023-06-14T06:09:47;99808.25;;;16.70;69.90
68107;BME280;54892;47.488;19.026;2023-06-14T06:12:50;99805.72;;;16.88;69.02
68107;BME280;54892;47.488;19.026;2023-06-14T06:15:57;99810.81;;;17.21;69.11
68107;BME280;54892;47.488;19.026;2023-06-14T06:19:01;99808.84;;;17.04;68.04
68107;BME280;54892;47.488;19.026;2023-06-14T06:22:05;99806.97;;;17.04;67.16
68107;BME280;54892;47.488;19.026;2023-06-14T06:25:09;99808.06;;;16.89;68.56
68107;BME280;54892;47.488;19.026;2023-06-14T06:28:13;99812.75;;;17.07;68.49
68107;BME280;54892;47.488;19.026;2023-06-14T06:31:18;99816.69;;;17.55;67.36
68107;BME280;54892;47.488;19.026;2023-06-14T06:34:21;99810.50;;;17.77;66.25
68107;BME280;54892;47.488;19.026;2023-06-14T06:37:25;99810.37;;;17.82;65.60
68107;BME280;54892;47.488;19.026;2023-06-14T06:40:28;99809.47;;;17.95;65.19
68107;BME280;54892;47.488;19.026;2023-06-14T06:43:32;99813.94;;;18.09;63.59
68107;BME280;54892;47.488;19.026;2023-06-14T06:46:37;99807.94;;;18.03;63.87
68107;BME280;54892;47.488;19.026;2023-06-14T06:49:42;99805.16;;;18.17;64.10
68107;BME280;54892;47.488;19.026;2023-06-14T06:52:46;99807.56;;;18.36;63.85
68107;BME280;54892;47.488;19.026;2023-06-14T06:55:50;99812.28;;;18.48;63.74
68107;BME280;54892;47.488;19.026;2023-06-14T06:58:57;99807.72;;;18.49;62.70
68107;BME280;54892;47.488;19.026;2023-06-14T07:02:01;99810.87;;;18.60;61.84
68107;BME280;54892;47.488;19.026;2023-06-14T07:05:05;99817.63;;;18.75;61.18
68107;BME280;54892;47.488;19.026;2023-06-14T07:08:09;99808.22;;;18.68;61.97
68107;BME280;54892;47.488;19.026;2023-06-14T07:11:12;99818.25;;;18.63;61.16
68107;BME280;54892;47.488;19.026;2023-06-14T07:14:16;99816.06;;;18.74;61.34
68107;BME280;54892;47.488;19.026;2023-06-14T07:17:21;99823.16;;;19.13;60.48
68107;BME280;54892;47.488;19.026;2023-06-14T07:20:24;99821.81;;;20.53;55.18
68107;BME280;54892;47.488;19.026;2023-06-14T07:23:28;99821.53;;;20.67;55.77
68107;BME280;54892;47.488;19.026;2023-06-14T07:26:31;99810.16;;;20.28;54.96
68107;BME280;54892;47.488;19.026;2023-06-14T07:29:35;99818.66;;;20.30;54.94
68107;BME280;54892;47.488;19.026;2023-06-14T07:32:39;99820.06;;;20.06;54.68
68107;BME280;54892;47.488;19.026;2023-06-14T07:35:43;99812.13;;;19.71;56.71
68107;BME280;54892;47.488;19.026;2023-06-14T07:38:48;99823.47;;;19.77;56.99
68107;BME280;54892;47.488;19.026;2023-06-14T07:41:52;99815.88;;;19.79;57.92
68107;BME280;54892;47.488;19.026;2023-06-14T07:44:56;99830.53;;;19.90;57.11
68107;BME280;54892;47.488;19.026;2023-06-14T07:48:01;99832.41;;;19.81;57.17
68107;BME280;54892;47.488;19.026;2023-06-14T07:51:04;99840.00;;;19.70;57.95
68107;BME280;54892;47.488;19.026;2023-06-14T07:54:08;99835.78;;;19.69;58.13
68107;BME280;54892;47.488;19.026;2023-06-14T07:57:11;99833.25;;;19.73;58.33
68107;BME280;54892;47.488;19.026;2023-06-14T08:00:16;99842.88;;;19.74;58.50
68107;BME280;54892;47.488;19.026;2023-06-14T08:03:22;99841.09;;;19.78;57.10
68107;BME280;54892;47.488;19.026;2023-06-14T08:06:26;99834.78;;;20.21;56.54
68107;BME280;54892;47.488;19.026;2023-06-14T08:09:29;99849.34;;;20.63;54.38
68107;BME280;54892;47.488;19.026;2023-06-14T08:12:32;99843.34;;;20.66;54.26
68107;BME280;54892;47.488;19.026;2023-06-14T08:15:36;99843.75;;;21.78;51.48
68107;BME280;54892;47.488;19.026;2023-06-14T08:18:41;99837.16;;;23.06;49.06
68107;BME280;54892;47.488;19.026;2023-06-14T08:21:44;99833.87;;;22.85;48.83
68107;BME280;54892;47.488;19.026;2023-06-14T08:24:48;99839.72;;;21.96;50.13
68107;BME280;54892;47.488;19.026;2023-06-14T08:27:51;99838.41;;;21.44;52.66
68107;BME280;54892;47.488;19.026;2023-06-14T08:30:54;99842.06;;;20.93;53.84
68107;BME280;54892;47.488;19.026;2023-06-14T08:33:59;99836.16;;;20.79;52.89
68107;BME280;54892;47.488;19.026;2023-06-14T08:37:05;99852.31;;;20.70;52.37
68107;BME280;54892;47.488;19.026;2023-06-14T08:40:18;99852.16;;;20.66;53.13
68107;BME280;54892;47.488;19.026;2023-06-14T08:43:22;99850.22;;;20.54;53.64
68107;BME280;54892;47.488;19.026;2023-06-14T08:46:27;99861.13;;;20.49;54.01
68107;BME280;54892;47.488;19.026;2023-06-14T08:49:33;99864.09;;;20.48;54.31
68107;BME280;54892;47.488;19.026;2023-06-14T08:52:39;99868.06;;;20.50;53.64
68107;BME280;54892;47.488;19.026;2023-06-14T08:55:51;99865.38;;;20.50;53.67
68107;BME280;54892;47.488;19.026;2023-06-14T08:58:55;99879.09;;;20.49;53.42
68107;BME280;54892;47.488;19.026;2023-06-14T09:01:59;99878.94;;;20.45;53.85
68107;BME280;54892;47.488;19.026;2023-06-14T09:05:14;99875.69;;;20.39;54.44
68107;BME280;54892;47.488;19.026;2023-06-14T09:08:22;99874.62;;;20.32;55.28
68107;BME280;54892;47.488;19.026;2023-06-14T09:11:26;99876.59;;;20.44;55.02
68107;BME280;54892;47.488;19.026;2023-06-14T09:14:30;99882.62;;;20.62;53.29
68107;BME280;54892;47.488;19.026;2023-06-14T09:17:36;99882.91;;;20.69;53.69
68107;BME280;54892;47.488;19.026;2023-06-14T09:20:42;99883.09;;;20.64;53.19
68107;BME280;54892;47.488;19.026;2023-06-14T09:23:46;99879.50;;;20.60;53.41
68107;BME280;54892;47.488;19.026;2023-06-14T09:26:50;99879.97;;;20.62;54.16
68107;BME280;54892;47.488;19.026;2023-06-14T09:29:54;99880.28;;;20.60;54.44
68107;BME280;54892;47.488;19.026;2023-06-14T09:32:58;99879.50;;;20.60;54.75
68107;BME280;54892;47.488;19.026;2023-06-14T09:36:04;99877.16;;;20.58;55.15
68107;BME280;54892;47.488;19.026;2023-06-14T09:39:07;99867.47;;;20.66;53.08
68107;BME280;54892;47.488;19.026;2023-06-14T09:42:16;99872.63;;;20.71;52.49
68107;BME280;54892;47.488;19.026;2023-06-14T09:45:21;99866.06;;;20.90;52.50
68107;BME280;54892;47.488;19.026;2023-06-14T09:48:25;99865.00;;;21.03;53.10
68107;BME280;54892;47.488;19.026;2023-06-14T09:51:30;99859.81;;;21.19;52.66
68107;BME280;54892;47.488;19.026;2023-06-14T09:54:40;99857.34;;;21.48;52.42
68107;BME280;54892;47.488;19.026;2023-06-14T09:57:47;99856.91;;;21.58;49.93
68107;BME280;54892;47.488;19.026;2023-06-14T10:00:51;99852.94;;;21.77;49.69
68107;BME280;54892;47.488;19.026;2023-06-14T10:03:55;99852.50;;;21.87;47.41
68107;BME280;54892;47.488;19.026;2023-06-14T10:07:09;99848.13;;;21.95;46.90
68107;BME280;54892;47.488;19.026;2023-06-14T10:10:12;99854.72;;;22.22;48.46
68107;BME280;54892;47.488;19.026;2023-06-14T10:13:18;99844.44;;;22.24;48.90
68107;BME280;54892;47.488;19.026;2023-06-14T10:16:25;99845.44;;;22.44;47.72
68107;BME280;54892;47.488;19.026;2023-06-14T10:19:34;99837.47;;;22.48;46.63
68107;BME280;54892;47.488;19.026;2023-06-14T10:22:45;99840.81;;;22.57;43.04
68107;BME280;54892;47.488;19.026;2023-06-14T10:25:54;99839.38;;;22.47;44.22
68107;BME280;54892;47.488;19.026;2023-06-14T10:29:01;99839.78;;;22.62;43.95
68107;BME280;54892;47.488;19.026;2023-06-14T10:32:05;99836.88;;;22.55;39.73
68107;BME280;54892;47.488;19.026;2023-06-14T10:35:09;99835.44;;;22.57;40.51
68107;BME280;54892;47.488;19.026;2023-06-14T10:38:30;99828.91;;;22.58;40.20
68107;BME280;54892;47.488;19.026;2023-06-14T10:41:34;99830.34;;;22.68;40.03
68107;BME280;54892;47.488;19.026;2023-06-14T10:44:39;99824.94;;;22.80;41.75
68107;BME280;54892;47.488;19.026;2023-06-14T10:47:43;99830.81;;;22.99;42.21
68107;BME280;54892;47.488;19.026;2023-06-14T10:51:00;99823.78;;;23.10;40.81
68107;BME280;54892;47.488;19.026;2023-06-14T10:54:11;99829.56;;;23.24;39.11
68107;BME280;54892;47.488;19.026;2023-06-14T10:57:15;99814.91;;;23.38;39.56
68107;BME280;54892;47.488;19.026;2023-06-14T11:00:19;99828.03;;;23.55;38.82
68107;BME280;54892;47.488;19.026;2023-06-14T11:03:51;99824.66;;;23.75;36.67
68107;BME280;54892;47.488;19.026;2023-06-14T11:07:05;99819.97;;;23.71;38.64
68107;BME280;54892;47.488;19.026;2023-06-14T11:10:23;99815.53;;;23.79;39.63
68107;BME280;54892;47.488;19.026;2023-06-14T11:13:29;99812.75;;;23.60;39.85
68107;BME280;54892;47.488;19.026;2023-06-14T11:16:33;99812.56;;;23.52;38.54
68107;BME280;54892;47.488;19.026;2023-06-14T11:19:36;99811.53;;;23.25;39.09
68107;BME280;54892;47.488;19.026;2023-06-14T11:22:41;99814.78;;;23.18;39.90
68107;BME280;54892;47.488;19.026;2023-06-14T11:25:51;99809.41;;;23.18;39.46
68107;BME280;54892;47.488;19.026;2023-06-14T11:28:55;99805.00;;;23.26;38.45
68107;BME280;54892;47.488;19.026;2023-06-14T11:32:00;99800.59;;;23.34;38.91
68107;BME280;54892;47.488;19.026;2023-06-14T11:35:04;99806.06;;;23.53;38.77
68107;BME280;54892;47.488;19.026;2023-06-14T11:38:10;99809.28;;;23.75;38.99
68107;BME280;54892;47.488;19.026;2023-06-14T11:41:15;99803.28;;;23.66;38.55
68107;BME280;54892;47.488;19.026;2023-06-14T11:44:18;99809.19;;;23.71;38.77
68107;BME280;54892;47.488;19.026;2023-06-14T11:47:22;99804.56;;;23.72;38.64
68107;BME280;54892;47.488;19.026;2023-06-14T11:50:28;99805.38;;;23.56;37.80
68107;BME280;54892;47.488;19.026;2023-06-14T11:53:31;99804.13;;;23.22;38.63
68107;BME280;54892;47.488;19.026;2023-06-14T11:56:37;99802.50;;;23.05;39.44
68107;BME280;54892;47.488;19.026;2023-06-14T11:59:41;99802.09;;;23.03;39.03
68107;BME280;54892;47.488;19.026;2023-06-14T12:02:52;99805.81;;;22.70;41.67
68107;BME280;54892;47.488;19.026;2023-06-14T12:06:08;99810.34;;;22.41;43.99
68107;BME280;54892;47.488;19.026;2023-06-14T12:09:12;99804.06;;;22.36;45.06
68107;BME280;54892;47.488;19.026;2023-06-14T12:12:21;99810.37;;;22.16;45.93
68107;BME280;54892;47.488;19.026;2023-06-14T12:15:28;99818.66;;;22.23;45.47
68107;BME280;54892;47.488;19.026;2023-06-14T12:18:32;99808.09;;;22.55;45.08
68107;BME280;54892;47.488;19.026;2023-06-14T12:21:37;99810.22;;;22.62;45.00
68107;BME280;54892;47.488;19.026;2023-06-14T12:24:42;99810.34;;;22.53;44.87
68107;BME280;54892;47.488;19.026;2023-06-14T12:27:48;99812.81;;;22.46;44.46
68107;BME280;54892;47.488;19.026;2023-06-14T12:30:53;99811.69;;;22.34;45.19
68107;BME280;54892;47.488;19.026;2023-06-14T12:33:57;99816.25;;;22.59;44.39
68107;BME280;54892;47.488;19.026;2023-06-14T12:37:00;99816.31;;;22.75;43.65
68107;BME280;54892;47.488;19.026;2023-06-14T12:40:06;99813.75;;;22.66;44.92
68107;BME280;54892;47.488;19.026;2023-06-14T12:43:11;99812.09;;;22.61;45.04
68107;BME280;54892;47.488;19.026;2023-06-14T12:46:15;99811.53;;;22.96;45.08
68107;BME280;54892;47.488;19.026;2023-06-14T12:49:18;99809.41;;;23.18;43.88
68107;BME280;54892;47.488;19.026;2023-06-14T12:52:22;99809.84;;;23.20;44.42
68107;BME280;54892;47.488;19.026;2023-06-14T12:55:26;99815.03;;;23.13;42.52
68107;BME280;54892;47.488;19.026;2023-06-14T12:58:31;99806.59;;;22.99;43.13
68107;BME280;54892;47.488;19.026;2023-06-14T13:01:37;99804.28;;;22.85;43.71
68107;BME280;54892;47.488;19.026;2023-06-14T13:04:40;99808.06;;;22.68;43.54
68107;BME280;54892;47.488;19.026;2023-06-14T13:07:46;99805.59;;;22.62;42.85
68107;BME280;54892;47.488;19.026;2023-06-14T13:10:49;99811.22;;;22.57;43.05
68107;BME280;54892;47.488;19.026;2023-06-14T13:13:53;99804.59;;;22.55;43.06
68107;BME280;54892;47.488;19.026;2023-06-14T13:16:57;99799.22;;;22.55;43.14
68107;BME280;54892;47.488;19.026;2023-06-14T13:20:00;99800.88;;;22.59;43.06
68107;BME280;54892;47.488;19.026;2023-06-14T13:23:04;99807.38;;;22.58;43.70
68107;BME280;54892;47.488;19.026;2023-06-14T13:26:09;99812.34;;;22.56;43.69
68107;BME280;54892;47.488;19.026;2023-06-14T13:29:14;99806.97;;;22.56;41.91
68107;BME280;54892;47.488;19.026;2023-06-14T13:32:17;99812.44;;;22.60;41.65
68107;BME280;54892;47.488;19.026;2023-06-14T13:35:21;99810.06;;;22.71;41.95
68107;BME280;54892;47.488;19.026;2023-06-14T13:38:25;99805.53;;;22.75;42.24
68107;BME280;54892;47.488;19.026;2023-06-14T13:41:29;99805.53;;;22.87;42.19
68107;BME280;54892;47.488;19.026;2023-06-14T13:44:35;99805.53;;;22.87;42.36
68107;BME280;54892;47.488;19.026;2023-06-14T13:47:38;99792.75;;;22.84;41.99
68107;BME280;54892;47.488;19.026;2023-06-14T13:50:43;99789.69;;;22.86;42.21
68107;BME280;54892;47.488;19.026;2023-06-14T13:53:50;99785.28;;;22.93;41.90
68107;BME280;54892;47.488;19.026;2023-06-14T13:56:53;99790.44;;;22.99;42.24
68107;BME280;54892;47.488;19.026;2023-06-14T14:00:00;99792.00;;;23.00;42.18
68107;BME280;54892;47.488;19.026;2023-06-14T14:03:05;99789.31;;;23.00;41.68
68107;BME280;54892;47.488;19.026;2023-06-14T14:06:08;99789.75;;;23.02;41.03
68107;BME280;54892;47.488;19.026;2023-06-14T14:09:12;99787.75;;;22.99;40.45
68107;BME280;54892;47.488;19.026;2023-06-14T14:12:16;99789.53;;;22.94;39.61
68107;BME280;54892;47.488;19.026;2023-06-14T14:15:21;99790.59;;;22.90;39.62
68107;BME280;54892;47.488;19.026;2023-06-14T14:18:24;99792.31;;;22.82;40.49
68107;BME280;54892;47.488;19.026;2023-06-14T14:21:29;99797.25;;;22.80;39.91
68107;BME280;54892;47.488;19.026;2023-06-14T14:24:32;99790.53;;;22.74;40.02
68107;BME280;54892;47.488;19.026;2023-06-14T14:27:36;99790.09;;;22.72;40.36
68107;BME280;54892;47.488;19.026;2023-06-14T14:30:41;99796.25;;;22.72;40.48
68107;BME280;54892;47.488;19.026;2023-06-14T14:33:44;99792.34;;;22.70;40.29
68107;BME280;54892;47.488;19.026;2023-06-14T14:36:48;99797.28;;;22.68;40.56
68107;BME280;54892;47.488;19.026;2023-06-14T14:39:52;99797.28;;;22.68;40.78
68107;BME280;54892;47.488;19.026;2023-06-14T14:42:56;99778.91;;;22.70;41.47
68107;BME280;54892;47.488;19.026;2023-06-14T14:46:00;99792.34;;;22.70;40.93
68107;BME280;54892;47.488;19.026;2023-06-14T14:49:03;99792.34;;;22.70;40.72
68107;BME280;54892;47.488;19.026;2023-06-14T14:52:08;99795.72;;;22.66;40.72
68107;BME280;54892;47.488;19.026;2023-06-14T14:55:19;99785.19;;;22.61;40.70
68107;BME280;54892;47.488;19.026;2023-06-14T14:58:22;99795.03;;;22.70;41.10
68107;BME280;54892;47.488;19.026;2023-06-14T15:01:27;99794.59;;;22.68;41.41
68107;BME280;54892;47.488;19.026;2023-06-14T15:04:30;99790.94;;;22.60;42.10
68107;BME280;54892;47.488;19.026;2023-06-14T15:07:33;99783.53;;;22.57;41.95
68107;BME280;54892;47.488;19.026;2023-06-14T15:10:37;99779.19;;;22.52;41.98
68107;BME280;54892;47.488;19.026;2023-06-14T15:13:42;99779.78;;;22.45;42.63
68107;BME280;54892;47.488;19.026;2023-06-14T15:16:47;99780.22;;;22.47;43.10
68107;BME280;54892;47.488;19.026;2023-06-14T15:19:50;99785.06;;;22.42;42.29
68107;BME280;54892;47.488;19.026;2023-06-14T15:22:54;99779.34;;;22.31;42.12
68107;BME280;54892;47.488;19.026;2023-06-14T15:26:01;99776.53;;;22.27;42.28
68107;BME280;54892;47.488;19.026;2023-06-14T15:29:05;99775.53;;;22.19;41.65
68107;BME280;54892;47.488;19.026;2023-06-14T15:32:11;99774.31;;;22.17;41.21
68107;BME280;54892;47.488;19.026;2023-06-14T15:35:16;99771.84;;;22.12;41.62
68107;BME280;54892;47.488;19.026;2023-06-14T15:38:20;99771.31;;;22.18;41.35
68107;BME280;54892;47.488;19.026;2023-06-14T15:41:24;99768.03;;;22.13;41.49
68107;BME280;54892;47.488;19.026;2023-06-14T15:44:27;99765.16;;;22.05;41.57
68107;BME280;54892;47.488;19.026;2023-06-14T15:47:32;99763.59;;;22.04;40.83
68107;BME280;54892;47.488;19.026;2023-06-14T15:50:36;99760.09;;;22.04;40.88
68107;BME280;54892;47.488;19.026;2023-06-14T15:53:39;99764.25;;;22.01;39.54
68107;BME280;54892;47.488;19.026;2023-06-14T15:56:43;99759.44;;;22.07;38.95
68107;BME280;54892;47.488;19.026;2023-06-14T15:59:46;99760.81;;;22.01;38.93
68107;BME280;54892;47.488;19.026;2023-06-14T16:02:51;99769.53;;;21.98;38.63
68107;BME280;54892;47.488;19.026;2023-06-14T16:05:54;99770.19;;;21.95;39.32